createdAt,value
2023-04-27T00:00:52.866Z,2.00
2023-04-27T00:03:19.856Z,2.30
2023-04-27T00:05:47.519Z,1.60
2023-04-27T00:08:14.542Z,3.30
2023-04-27T00:10:41.466Z,1.90
2023-04-27T00:13:08.317Z,1.70
2023-04-27T00:15:35.152Z,2.40
2023-04-27T00:18:02.261Z,1.70
2023-04-27T00:20:29.341Z,2.40
2023-04-27T00:22:56.813Z,1.80
2023-04-27T00:25:23.582Z,2.10
2023-04-27T00:27:50.583Z,2.20
2023-04-27T00:30:17.443Z,2.40
2023-04-27T00:32:44.521Z,2.30
2023-04-27T00:35:11.630Z,2.40
2023-04-27T00:37:38.591Z,2.00
2023-04-27T00:40:09.368Z,2.20
2023-04-27T00:42:36.279Z,2.40
2023-04-27T00:45:04.146Z,2.40
2023-04-27T00:47:31.049Z,2.30
2023-04-27T00:49:57.874Z,2.40
2023-04-27T00:52:26.084Z,2.20
2023-04-27T00:54:52.941Z,2.30
2023-04-27T00:57:21.391Z,2.20
2023-04-27T00:59:48.253Z,2.70
2023-04-27T01:02:15.307Z,2.10
2023-04-27T01:04:42.158Z,2.20
2023-04-27T01:07:09.034Z,1.80
2023-04-27T01:09:35.827Z,1.90
2023-04-27T01:12:03.347Z,1.40
2023-04-27T01:14:30.118Z,1.50
2023-04-27T01:16:56.922Z,1.60
2023-04-27T01:19:23.918Z,2.00
2023-04-27T01:21:50.726Z,1.10
2023-04-27T01:24:17.426Z,1.60
2023-04-27T01:26:44.223Z,1.10
2023-04-27T01:29:11.326Z,1.20
2023-04-27T01:31:38.924Z,1.30
2023-04-27T01:34:06.199Z,1.60
2023-04-27T01:36:33.248Z,1.40
2023-04-27T01:39:00.087Z,1.20
2023-04-27T01:41:27.042Z,1.20
2023-04-27T01:43:53.852Z,2.00
2023-04-27T01:46:21.777Z,1.30
2023-04-27T01:48:50.593Z,1.40
2023-04-27T01:51:17.478Z,1.10
2023-04-27T01:53:44.668Z,1.40
2023-04-27T01:56:11.584Z,1.40
2023-04-27T01:58:38.419Z,1.40
2023-04-27T02:01:05.445Z,1.50
2023-04-27T02:03:32.597Z,1.80
2023-04-27T02:05:59.439Z,1.50
2023-04-27T02:08:26.212Z,1.50
2023-04-27T02:10:53.127Z,1.80
2023-04-27T02:13:19.932Z,1.60
2023-04-27T02:15:46.720Z,2.10
2023-04-27T02:18:15.936Z,1.90
2023-04-27T02:20:42.846Z,1.90
2023-04-27T02:23:09.745Z,1.70
2023-04-27T02:25:38.107Z,2.10
2023-04-27T02:28:04.859Z,2.00
2023-04-27T02:30:32.289Z,1.90
2023-04-27T02:33:02.077Z,1.90
2023-04-27T02:35:33.300Z,2.30
2023-04-27T02:38:00.208Z,1.90
2023-04-27T02:40:27.338Z,2.00
2023-04-27T02:42:54.216Z,2.10
2023-04-27T02:45:21.998Z,2.40
2023-04-27T02:47:51.041Z,2.20
2023-04-27T02:50:18.086Z,1.80
2023-04-27T02:52:44.886Z,2.40
2023-04-27T02:55:14.688Z,2.40
2023-04-27T02:57:41.704Z,2.10
2023-04-27T03:00:10.564Z,2.10
2023-04-27T03:02:37.630Z,2.20
2023-04-27T03:05:05.576Z,2.00
2023-04-27T03:07:32.650Z,2.30
2023-04-27T03:09:59.593Z,1.60
2023-04-27T03:12:26.344Z,1.90
2023-04-27T03:14:53.412Z,1.90
2023-04-27T03:17:20.216Z,1.80
2023-04-27T03:19:49.173Z,2.30
2023-04-27T03:22:15.962Z,3.20
2023-04-27T03:24:43.119Z,2.10
2023-04-27T03:27:10.362Z,2.00
2023-04-27T03:29:37.159Z,2.20
2023-04-27T03:32:05.532Z,1.90
2023-04-27T03:34:32.310Z,2.20
2023-04-27T03:36:59.120Z,2.20
2023-04-27T03:39:26.219Z,2.10
2023-04-27T03:41:53.134Z,1.80
2023-04-27T03:44:19.964Z,2.30
2023-04-27T03:46:46.714Z,2.30
2023-04-27T03:49:14.052Z,2.40
2023-04-27T03:51:42.512Z,1.80
2023-04-27T03:54:10.230Z,2.50
2023-04-27T03:56:37.280Z,2.00
2023-04-27T03:59:04.980Z,2.40
2023-04-27T04:01:34.261Z,2.30
2023-04-27T04:04:01.241Z,2.20
2023-04-27T04:06:28.435Z,2.10
2023-04-27T04:08:55.982Z,2.20
2023-04-27T04:11:23.218Z,1.90
2023-04-27T04:13:51.236Z,1.90
2023-04-27T04:16:18.087Z,2.30
2023-04-27T04:18:45.324Z,2.20
2023-04-27T04:21:12.121Z,2.20
2023-04-27T04:23:41.203Z,1.90
2023-04-27T04:26:09.118Z,1.80
2023-04-27T04:28:39.050Z,1.80
2023-04-27T04:31:06.572Z,1.90
2023-04-27T04:33:33.495Z,1.90
2023-04-27T04:36:04.067Z,2.20
2023-04-27T04:38:30.852Z,1.90
2023-04-27T04:40:57.954Z,1.90
2023-04-27T04:43:24.721Z,1.90
2023-04-27T04:45:51.756Z,2.00
2023-04-27T04:48:20.055Z,2.40
2023-04-27T04:50:46.929Z,2.20
2023-04-27T04:53:13.675Z,1.70
2023-04-27T04:55:43.077Z,1.90
2023-04-27T04:58:09.954Z,1.90
2023-04-27T05:00:36.991Z,1.90
2023-04-27T05:03:03.961Z,1.60
2023-04-27T05:05:31.010Z,1.60
2023-04-27T05:07:57.729Z,1.90
2023-04-27T05:10:24.493Z,1.80
2023-04-27T05:12:51.191Z,1.70
2023-04-27T05:15:18.227Z,1.80
2023-04-27T05:17:45.017Z,1.70
2023-04-27T05:20:12.180Z,1.60
2023-04-27T05:22:38.928Z,1.50
2023-04-27T05:25:06.692Z,1.40
2023-04-27T05:27:33.478Z,1.70
2023-04-27T05:30:00.223Z,1.40
2023-04-27T05:32:26.958Z,1.70
2023-04-27T05:34:54.240Z,1.70
2023-04-27T05:37:21.100Z,1.80
2023-04-27T05:39:47.818Z,1.50
2023-04-27T05:42:14.588Z,1.50
2023-04-27T05:44:41.562Z,1.70
2023-04-27T05:47:08.293Z,1.70
2023-04-27T05:49:34.988Z,1.50
2023-04-27T05:52:01.881Z,1.60
2023-04-27T05:54:28.576Z,1.70
2023-04-27T05:56:56.845Z,1.30
2023-04-27T05:59:23.586Z,1.50
2023-04-27T06:03:31.670Z,1.30
2023-04-27T06:06:02.727Z,1.50
2023-04-27T06:08:30.693Z,1.40
2023-04-27T06:10:57.553Z,1.50
2023-04-27T06:13:24.457Z,1.80
2023-04-27T06:15:51.281Z,1.70
2023-04-27T06:18:18.125Z,1.50
2023-04-27T06:20:45.140Z,1.70
2023-04-27T06:23:11.876Z,1.60
2023-04-27T06:25:40.393Z,1.60
2023-04-27T06:28:07.256Z,1.70
2023-04-27T06:30:34.388Z,1.50
2023-04-27T06:33:01.538Z,1.40
2023-04-27T06:35:28.378Z,1.70
2023-04-27T06:37:58.873Z,3.00
2023-04-27T06:40:26.472Z,3.00
2023-04-27T06:42:53.315Z,1.90
2023-04-27T06:45:20.108Z,2.00
2023-04-27T06:47:46.980Z,1.60
2023-04-27T06:50:16.447Z,2.00
2023-04-27T06:52:43.496Z,1.60
2023-04-27T06:55:10.343Z,1.60
2023-04-27T06:57:37.141Z,1.70
2023-04-27T07:00:05.153Z,1.60
2023-04-27T07:02:32.091Z,2.00
2023-04-27T07:04:59.045Z,1.60
2023-04-27T07:07:25.860Z,1.80
2023-04-27T07:09:52.716Z,1.40
2023-04-27T07:12:19.612Z,1.60
2023-04-27T07:14:46.721Z,1.70
2023-04-27T07:17:13.488Z,1.40
2023-04-27T07:19:40.213Z,1.30
2023-04-27T07:22:07.056Z,1.30
2023-04-27T07:24:33.899Z,1.40
2023-04-27T07:27:02.313Z,1.60
2023-04-27T07:29:29.580Z,1.60
2023-04-27T07:31:56.688Z,1.30
2023-04-27T07:34:24.136Z,1.40
2023-04-27T07:36:54.359Z,1.60
2023-04-27T07:39:21.434Z,1.50
2023-04-27T07:41:48.296Z,1.50
2023-04-27T07:44:15.235Z,1.20
2023-04-27T07:46:42.508Z,1.60
2023-04-27T07:49:09.314Z,1.10
2023-04-27T07:51:36.411Z,1.40
2023-04-27T07:54:04.303Z,1.50
2023-04-27T07:56:31.167Z,1.40
2023-04-27T07:58:57.896Z,1.80
2023-04-27T08:01:24.725Z,1.10
2023-04-27T08:03:51.657Z,1.30
2023-04-27T08:06:19.068Z,1.40
2023-04-27T08:08:46.441Z,1.20
2023-04-27T08:11:13.266Z,1.40
2023-04-27T08:13:42.822Z,1.30
2023-04-27T08:16:09.691Z,1.40
2023-04-27T08:18:39.326Z,1.60
2023-04-27T08:21:06.063Z,1.50
2023-04-27T08:23:33.193Z,1.70
2023-04-27T08:25:59.983Z,1.50
2023-04-27T08:28:26.849Z,1.60
2023-04-27T08:30:54.011Z,1.30
2023-04-27T08:33:20.845Z,1.80
2023-04-27T08:35:47.648Z,1.70
2023-04-27T08:38:14.406Z,1.50
2023-04-27T08:40:43.916Z,1.60
2023-04-27T08:43:11.076Z,1.60
2023-04-27T08:45:38.040Z,1.70
2023-04-27T08:48:05.201Z,1.40
2023-04-27T08:50:32.527Z,2.00
2023-04-27T08:52:59.886Z,2.20
2023-04-27T08:55:27.034Z,1.70
2023-04-27T08:57:55.329Z,1.70
2023-04-27T09:00:22.317Z,1.50
2023-04-27T09:02:49.186Z,2.10
2023-04-27T09:05:20.030Z,1.50
2023-04-27T09:07:56.962Z,1.50
2023-04-27T09:10:24.173Z,1.20
2023-04-27T09:12:58.435Z,1.30
2023-04-27T09:15:25.461Z,1.70
2023-04-27T09:17:58.525Z,1.50
2023-04-27T09:20:27.260Z,1.30
2023-04-27T09:22:58.782Z,1.60
2023-04-27T09:25:30.390Z,1.40
2023-04-27T09:27:58.346Z,1.30
2023-04-27T09:30:26.236Z,1.60
2023-04-27T09:32:54.346Z,1.10
2023-04-27T09:35:24.993Z,1.30
2023-04-27T09:37:54.600Z,1.70
2023-04-27T09:40:28.038Z,1.50
2023-04-27T09:43:01.100Z,1.30
2023-04-27T09:45:28.001Z,1.30
2023-04-27T09:47:54.855Z,1.30
2023-04-27T09:50:24.668Z,1.40
2023-04-27T09:52:51.478Z,1.30
2023-04-27T09:55:31.542Z,1.40
2023-04-27T09:58:17.004Z,1.80
2023-04-27T10:01:25.441Z,1.50
2023-04-27T10:04:03.937Z,1.30
2023-04-27T10:06:37.073Z,1.50
2023-04-27T10:09:06.872Z,1.70
2023-04-27T10:11:40.957Z,1.90
2023-04-27T10:14:09.339Z,1.60
2023-04-27T10:16:47.033Z,1.60
2023-04-27T10:19:14.426Z,1.60
2023-04-27T10:22:00.523Z,1.40
2023-04-27T10:24:37.111Z,1.60
2023-04-27T10:27:05.910Z,1.70
2023-04-27T10:29:42.834Z,1.70
2023-04-27T10:32:19.338Z,1.60
2023-04-27T10:34:47.664Z,2.20
2023-04-27T10:37:14.954Z,2.10
2023-04-27T10:39:49.089Z,1.80
2023-04-27T10:42:27.423Z,1.60
2023-04-27T10:44:56.876Z,1.70
2023-04-27T10:47:24.693Z,1.80
2023-04-27T10:49:54.594Z,2.00
2023-04-27T10:52:21.394Z,1.70
2023-04-27T10:54:48.202Z,1.70
2023-04-27T10:57:14.966Z,2.00
2023-04-27T10:59:51.008Z,1.90
2023-04-27T11:02:19.333Z,1.50
2023-04-27T11:04:47.014Z,1.90
2023-04-27T11:07:26.687Z,1.60
2023-04-27T11:09:53.806Z,1.90
2023-04-27T11:12:21.630Z,1.80
2023-04-27T11:14:48.403Z,2.00
2023-04-27T11:17:15.197Z,1.90
2023-04-27T11:19:48.292Z,1.80
2023-04-27T11:22:18.877Z,1.90
2023-04-27T11:24:50.407Z,2.20
2023-04-27T11:27:18.051Z,2.10
2023-04-27T11:29:45.121Z,2.20
2023-04-27T11:32:22.079Z,2.30
2023-04-27T11:34:56.616Z,2.60
2023-04-27T11:37:26.699Z,2.30
2023-04-27T11:39:57.744Z,2.30
2023-04-27T11:44:57.293Z,2.40
2023-04-27T11:47:25.358Z,3.00
2023-04-27T11:49:55.100Z,2.70
2023-04-27T11:52:23.029Z,2.80
2023-04-27T11:54:51.126Z,3.20
2023-04-27T11:57:17.942Z,3.30
2023-04-27T11:59:44.754Z,2.60
2023-04-27T12:02:11.919Z,3.00
2023-04-27T12:04:38.834Z,2.70
2023-04-27T12:07:05.649Z,3.10
2023-04-27T12:09:32.387Z,3.40
2023-04-27T12:11:59.194Z,3.40
2023-04-27T12:14:25.984Z,4.00
2023-04-27T12:16:53.098Z,3.40
2023-04-27T12:19:19.859Z,3.40
2023-04-27T12:21:46.773Z,3.50
2023-04-27T12:24:13.719Z,2.70
2023-04-27T12:26:40.965Z,4.10
2023-04-27T12:29:07.780Z,3.30
2023-04-27T12:31:34.738Z,4.10
2023-04-27T12:34:01.638Z,3.70
2023-04-27T12:36:28.748Z,3.40
2023-04-27T12:38:59.822Z,3.50
2023-04-27T12:43:53.675Z,3.70
2023-04-27T12:46:20.620Z,5.00
2023-04-27T12:48:47.514Z,4.10
2023-04-27T12:51:14.741Z,4.50
2023-04-27T12:53:41.518Z,4.20
2023-04-27T12:56:08.661Z,3.80
2023-04-27T12:58:35.568Z,4.70
2023-04-27T13:01:02.352Z,5.00
2023-04-27T13:03:29.312Z,4.50
2023-04-27T13:05:56.308Z,5.40
2023-04-27T13:08:23.131Z,5.00
2023-04-27T13:10:50.132Z,5.60
2023-04-27T13:13:16.998Z,5.80
2023-04-27T13:15:44.086Z,5.30
2023-04-27T13:18:11.583Z,6.00
2023-04-27T13:20:38.549Z,5.30
2023-04-27T13:23:05.929Z,6.30
2023-04-27T13:25:32.641Z,5.30
2023-04-27T13:27:59.388Z,5.00
2023-04-27T13:30:26.207Z,6.10
2023-04-27T13:32:53.401Z,5.00
2023-04-27T13:35:23.833Z,5.10
2023-04-27T13:37:53.396Z,5.60
2023-04-27T13:40:21.592Z,4.50
2023-04-27T13:42:48.406Z,4.90
2023-04-27T13:45:15.416Z,4.50
2023-04-27T13:47:42.342Z,4.30
2023-04-27T13:50:10.682Z,4.60
2023-04-27T13:52:37.772Z,4.50
2023-04-27T13:55:05.246Z,4.10
2023-04-27T13:57:32.087Z,4.00
2023-04-27T14:00:01.765Z,3.60
2023-04-27T14:02:33.946Z,3.50
2023-04-27T14:05:01.107Z,3.30
2023-04-27T14:07:28.276Z,3.50
2023-04-27T14:09:55.154Z,3.90
2023-04-27T14:12:21.987Z,4.10
2023-04-27T14:14:48.820Z,4.40
2023-04-27T14:17:15.678Z,4.60
2023-04-27T14:19:43.393Z,4.80
2023-04-27T14:22:10.123Z,5.20
2023-04-27T14:24:39.028Z,5.20
2023-04-27T14:27:05.813Z,5.20
2023-04-27T14:29:32.535Z,4.90
2023-04-27T14:31:59.366Z,4.60
2023-04-27T14:34:26.769Z,5.20
2023-04-27T14:36:53.795Z,5.10
2023-04-27T14:39:21.658Z,6.20
2023-04-27T14:41:48.653Z,4.70
2023-04-27T14:44:16.123Z,5.60
2023-04-27T14:46:43.043Z,5.70
2023-04-27T14:49:09.957Z,6.40
2023-04-27T14:51:36.788Z,5.70
2023-04-27T14:54:04.562Z,5.60
2023-04-27T14:56:31.436Z,5.30
2023-04-27T14:58:58.212Z,6.00
2023-04-27T15:01:25.052Z,5.50
2023-04-27T15:03:53.316Z,5.80
2023-04-27T15:06:21.873Z,6.30
2023-04-27T15:08:48.657Z,6.00
2023-04-27T15:11:15.677Z,5.20
2023-04-27T15:13:42.534Z,6.10
2023-04-27T15:16:09.956Z,6.00
2023-04-27T15:18:37.143Z,5.60
2023-04-27T15:21:04.715Z,5.90
2023-04-27T15:23:31.698Z,6.00
2023-04-27T15:25:58.609Z,6.00
2023-04-27T15:28:25.537Z,5.70
2023-04-27T15:30:56.303Z,6.00
2023-04-27T15:33:23.233Z,5.30
2023-04-27T15:35:50.116Z,5.80
2023-04-27T15:38:18.149Z,5.50
2023-04-27T15:40:45.060Z,4.90
2023-04-27T15:43:11.989Z,4.40
2023-04-27T15:45:38.931Z,5.30
2023-04-27T15:48:06.182Z,4.50
2023-04-27T15:50:33.134Z,4.90
2023-04-27T15:52:59.926Z,4.40
2023-04-27T15:55:26.721Z,4.40
2023-04-27T15:57:53.620Z,4.40
2023-04-27T16:00:22.550Z,4.60
2023-04-27T16:02:49.838Z,4.50
2023-04-27T16:05:17.244Z,4.20
2023-04-27T16:07:44.469Z,4.30
2023-04-27T16:10:11.785Z,4.50
2023-04-27T16:12:38.863Z,4.80
2023-04-27T16:15:08.026Z,4.20
2023-04-27T16:17:37.391Z,3.60
2023-04-27T16:20:08.124Z,3.70
2023-04-27T16:22:35.536Z,4.40
2023-04-27T16:25:02.956Z,4.10
2023-04-27T16:27:29.970Z,4.30
2023-04-27T16:29:57.226Z,4.20
2023-04-27T16:32:24.284Z,4.00
2023-04-27T16:34:51.441Z,5.30
2023-04-27T16:37:18.335Z,4.10
2023-04-27T16:39:45.311Z,4.20
2023-04-27T16:42:16.443Z,3.70
2023-04-27T16:44:43.331Z,3.80
2023-04-27T16:47:10.112Z,3.60
2023-04-27T16:49:37.854Z,3.50
2023-04-27T16:52:04.870Z,3.50
2023-04-27T16:54:32.032Z,3.40
2023-04-27T16:56:59.115Z,3.30
2023-04-27T16:59:25.951Z,3.50
2023-04-27T17:01:53.299Z,3.50
2023-04-27T17:04:20.282Z,4.80
2023-04-27T17:06:48.927Z,3.80
2023-04-27T17:09:16.668Z,3.50
2023-04-27T17:11:44.081Z,3.30
2023-04-27T17:14:11.003Z,3.90
2023-04-27T17:16:37.840Z,4.50
2023-04-27T17:19:04.689Z,4.40
2023-04-27T17:21:31.665Z,3.60
2023-04-27T17:23:58.551Z,3.70
2023-04-27T17:26:25.833Z,3.80
2023-04-27T17:28:53.199Z,4.10
2023-04-27T17:31:20.478Z,4.60
2023-04-27T17:33:47.506Z,4.30
2023-04-27T17:36:15.160Z,4.50
2023-04-27T17:38:42.278Z,4.00
2023-04-27T17:41:09.006Z,4.00
2023-04-27T17:43:37.733Z,3.90
2023-04-27T17:46:09.742Z,3.20
2023-04-27T17:48:37.508Z,4.00
2023-04-27T17:51:04.398Z,3.60
2023-04-27T17:53:31.255Z,3.70
2023-04-27T17:55:58.070Z,3.30
2023-04-27T17:58:24.888Z,3.40
2023-04-27T18:00:51.852Z,3.30
2023-04-27T18:03:18.996Z,3.50
2023-04-27T18:05:46.191Z,3.50
2023-04-27T18:08:13.147Z,3.50
2023-04-27T18:10:39.872Z,3.10
2023-04-27T18:13:06.888Z,3.70
2023-04-27T18:15:34.024Z,3.50
2023-04-27T18:20:12.362Z,3.40
2023-04-27T18:22:40.284Z,3.30
2023-04-27T18:25:11.101Z,3.50
2023-04-27T18:27:38.015Z,3.50
2023-04-27T18:30:06.316Z,3.30
2023-04-27T18:32:33.855Z,3.60
2023-04-27T18:35:00.752Z,3.80
2023-04-27T18:37:27.648Z,3.50
2023-04-27T18:39:55.176Z,3.30
2023-04-27T18:42:24.431Z,3.30
2023-04-27T18:44:54.817Z,3.80
2023-04-27T18:47:21.923Z,3.30
2023-04-27T18:49:48.820Z,3.50
2023-04-27T18:52:15.917Z,3.30
2023-04-27T18:54:43.380Z,3.50
2023-04-27T18:57:10.133Z,4.00
2023-04-27T18:59:40.166Z,2.70
2023-04-27T19:02:07.247Z,3.10
2023-04-27T19:04:34.688Z,3.40
2023-04-27T19:07:01.998Z,3.50
2023-04-27T19:09:29.111Z,3.10
2023-04-27T19:12:02.764Z,3.10
2023-04-27T19:14:31.586Z,3.60
2023-04-27T19:16:58.505Z,3.50
2023-04-27T19:19:26.766Z,3.30
2023-04-27T19:21:54.479Z,3.10
2023-04-27T19:24:21.618Z,3.30
2023-04-27T19:26:48.545Z,3.20
2023-04-27T19:29:15.956Z,3.20
2023-04-27T19:31:43.375Z,3.20
2023-04-27T19:34:10.310Z,3.80
2023-04-27T19:36:37.174Z,3.50
2023-04-27T19:39:04.067Z,3.20
2023-04-27T19:41:30.932Z,3.00
2023-04-27T19:43:57.947Z,3.00
2023-04-27T19:46:24.897Z,3.90
2023-04-27T19:48:53.323Z,3.50
2023-04-27T19:51:20.160Z,3.30
2023-04-27T19:53:46.985Z,3.40
2023-04-27T19:56:13.846Z,3.60
2023-04-27T19:58:40.817Z,3.20
2023-04-27T20:01:07.783Z,3.60
2023-04-27T20:03:35.839Z,3.20
2023-04-27T20:06:03.524Z,3.20
2023-04-27T20:08:30.688Z,3.40
2023-04-27T20:10:57.722Z,3.10
2023-04-27T20:13:24.599Z,3.10
2023-04-27T20:15:52.346Z,3.10
2023-04-27T20:18:19.329Z,3.10
2023-04-27T20:20:46.234Z,3.20
2023-04-27T20:23:13.068Z,3.40
2023-04-27T20:25:39.805Z,3.20
2023-04-27T20:28:06.674Z,2.80
2023-04-27T20:30:33.702Z,3.60
2023-04-27T20:33:01.740Z,2.90
2023-04-27T20:35:28.551Z,3.10
2023-04-27T20:37:55.273Z,3.00
2023-04-27T20:40:22.456Z,2.70
2023-04-27T20:42:49.786Z,3.00
2023-04-27T20:45:17.580Z,3.20
2023-04-27T20:47:44.730Z,2.90
2023-04-27T20:50:11.973Z,3.00
2023-04-27T20:52:38.897Z,3.40
2023-04-27T20:55:06.667Z,3.10
2023-04-27T20:57:33.432Z,2.90
2023-04-27T21:00:00.347Z,3.20
2023-04-27T21:02:27.437Z,3.20
2023-04-27T21:04:54.614Z,3.10
2023-04-27T21:07:21.563Z,3.20
2023-04-27T21:09:48.417Z,2.90
2023-04-27T21:12:17.321Z,3.20
2023-04-27T21:14:44.643Z,2.90
2023-04-27T21:17:11.526Z,2.80
2023-04-27T21:19:38.302Z,3.20
2023-04-27T21:22:05.168Z,3.30
2023-04-27T21:24:32.212Z,3.00
2023-04-27T21:26:59.310Z,3.40
2023-04-27T21:29:28.011Z,2.90
2023-04-27T21:31:54.957Z,3.60
2023-04-27T21:34:21.927Z,3.20
2023-04-27T21:36:48.873Z,2.70
2023-04-27T21:39:16.113Z,2.90
2023-04-27T21:41:43.460Z,3.00
2023-04-27T21:44:10.654Z,3.00
2023-04-27T21:46:37.727Z,3.20
2023-04-27T21:49:05.003Z,2.60
2023-04-27T21:51:34.574Z,3.00
2023-04-27T21:54:01.808Z,3.50
2023-04-27T21:56:29.023Z,3.50
2023-04-27T21:58:56.066Z,2.90
2023-04-27T22:01:23.589Z,2.80
2023-04-27T22:03:50.835Z,2.60
2023-04-27T22:06:18.142Z,3.20
2023-04-27T22:08:45.410Z,2.80
2023-04-27T22:11:12.422Z,2.90
2023-04-27T22:13:39.558Z,3.20
2023-04-27T22:16:06.551Z,3.40
2023-04-27T22:18:33.664Z,3.50
2023-04-27T22:21:00.610Z,3.00
2023-04-27T22:23:31.271Z,3.40
2023-04-27T22:25:58.251Z,3.20
2023-04-27T22:28:25.134Z,3.50
2023-04-27T22:30:52.008Z,3.10
2023-04-27T22:33:19.040Z,3.30
2023-04-27T22:35:46.196Z,2.90
2023-04-27T22:38:13.581Z,2.90
2023-04-27T22:40:40.986Z,2.80
2023-04-27T22:43:08.106Z,3.20
2023-04-27T22:45:37.357Z,3.10
2023-04-27T22:48:05.835Z,3.40
2023-04-27T22:50:32.825Z,3.10
2023-04-27T22:53:01.168Z,2.90
2023-04-27T22:55:28.435Z,3.00
2023-04-27T22:57:55.207Z,2.70
2023-04-27T23:00:22.291Z,3.20
2023-04-27T23:02:49.793Z,3.00
2023-04-27T23:05:17.056Z,3.00
2023-04-27T23:07:44.411Z,3.10
2023-04-27T23:10:13.032Z,3.00
2023-04-27T23:12:39.873Z,2.90
2023-04-27T23:15:08.086Z,2.90
2023-04-27T23:17:36.049Z,2.60
2023-04-27T23:20:11.220Z,3.20
2023-04-27T23:22:44.267Z,2.90
2023-04-27T23:25:11.516Z,2.70
2023-04-27T23:27:38.642Z,2.70
2023-04-27T23:30:06.777Z,2.50
2023-04-27T23:32:35.395Z,2.80
2023-04-27T23:35:02.539Z,2.40
2023-04-27T23:37:32.396Z,2.50
2023-04-27T23:40:03.008Z,2.30
2023-04-27T23:42:30.375Z,2.70
2023-04-27T23:44:57.714Z,2.70
2023-04-27T23:47:24.890Z,2.60
2023-04-27T23:49:52.662Z,2.60
2023-04-27T23:52:20.283Z,2.70
2023-04-27T23:54:47.439Z,2.50
2023-04-27T23:57:15.291Z,2.60
2023-04-27T23:59:42.272Z,2.90
